createdAt,value
2018-12-10T00:00:32.878Z,10.60
2018-12-10T00:03:06.404Z,10.70
2018-12-10T00:05:34.380Z,10.70
2018-12-10T00:08:02.360Z,10.70
2018-12-10T00:10:30.347Z,10.70
2018-12-10T00:12:58.447Z,10.70
2018-12-10T00:15:26.428Z,10.70
2018-12-10T00:17:54.412Z,10.70
2018-12-10T00:20:22.372Z,10.70
2018-12-10T00:22:50.328Z,10.70
2018-12-10T00:25:18.313Z,10.60
2018-12-10T00:27:46.296Z,10.60
2018-12-10T00:30:14.256Z,10.60
2018-12-10T00:32:42.220Z,10.60
2018-12-10T00:35:10.151Z,10.60
2018-12-10T00:37:38.081Z,10.60
2018-12-10T00:40:06.027Z,10.60
2018-12-10T00:42:33.979Z,10.70
2018-12-10T00:45:01.917Z,10.70
2018-12-10T00:47:29.849Z,10.70
2018-12-10T00:49:57.791Z,10.60
2018-12-10T00:52:25.768Z,10.60
2018-12-10T00:54:53.715Z,10.50
2018-12-10T00:57:21.928Z,10.50
2018-12-10T00:59:50.053Z,10.40
2018-12-10T01:02:18.033Z,10.40
2018-12-10T01:04:45.991Z,10.40
2018-12-10T01:07:13.937Z,10.40
2018-12-10T01:09:41.941Z,10.30
2018-12-10T01:12:09.898Z,10.10
2018-12-10T01:14:37.827Z,10.10
2018-12-10T01:17:05.713Z,10.10
2018-12-10T01:19:33.688Z,10.00
2018-12-10T01:22:01.679Z,10.00
2018-12-10T01:24:29.621Z,10.00
2018-12-10T01:26:57.652Z,10.00
2018-12-10T01:29:25.599Z,9.90
2018-12-10T01:31:53.572Z,9.90
2018-12-10T01:34:21.601Z,9.80
2018-12-10T01:36:49.541Z,9.80
2018-12-10T01:39:17.468Z,9.80
2018-12-10T01:41:45.408Z,9.90
2018-12-10T01:44:13.350Z,10.00
2018-12-10T01:46:41.484Z,10.00
2018-12-10T01:49:09.505Z,10.10
2018-12-10T01:51:37.461Z,10.10
2018-12-10T01:54:05.410Z,10.10
2018-12-10T01:56:33.372Z,10.10
2018-12-10T01:59:01.341Z,10.10
2018-12-10T02:01:29.266Z,10.10
2018-12-10T02:03:57.229Z,10.10
2018-12-10T02:06:25.231Z,10.10
2018-12-10T02:08:53.243Z,10.00
2018-12-10T02:11:21.194Z,10.00
2018-12-10T02:13:49.148Z,9.90
2018-12-10T02:16:17.096Z,9.90
2018-12-10T02:18:45.035Z,9.80
2018-12-10T02:21:12.961Z,9.70
2018-12-10T02:23:40.895Z,9.70
2018-12-10T02:26:08.845Z,9.70
2018-12-10T02:28:42.327Z,9.70
2018-12-10T02:31:10.280Z,9.70
2018-12-10T02:33:38.225Z,9.70
2018-12-10T02:36:06.168Z,9.70
2018-12-10T02:38:34.100Z,9.70
2018-12-10T02:41:02.428Z,9.80
2018-12-10T02:43:30.381Z,9.80
2018-12-10T02:45:58.386Z,9.90
2018-12-10T02:48:26.518Z,9.90
2018-12-10T02:50:54.547Z,9.80
2018-12-10T02:53:22.504Z,9.70
2018-12-10T02:55:50.446Z,9.60
2018-12-10T02:58:18.388Z,9.50
2018-12-10T03:00:46.338Z,9.50
2018-12-10T03:03:14.295Z,9.50
2018-12-10T03:05:42.287Z,9.60
2018-12-10T03:08:10.244Z,9.70
2018-12-10T03:10:38.257Z,9.70
2018-12-10T03:13:06.198Z,9.80
2018-12-10T03:15:34.136Z,9.90
2018-12-10T03:18:02.104Z,9.90
2018-12-10T03:20:30.069Z,9.90
2018-12-10T03:22:58.656Z,9.90
2018-12-10T03:25:26.745Z,9.90
2018-12-10T03:27:54.769Z,9.90
2018-12-10T03:30:22.701Z,9.90
2018-12-10T03:32:50.656Z,9.90
2018-12-10T03:35:18.612Z,9.80
2018-12-10T03:37:46.541Z,9.70
2018-12-10T03:40:14.471Z,9.70
2018-12-10T03:42:42.397Z,9.70
2018-12-10T03:45:10.424Z,9.70
2018-12-10T03:47:38.381Z,9.80
2018-12-10T03:50:07.029Z,9.80
2018-12-10T03:52:34.961Z,9.90
2018-12-10T03:55:02.921Z,9.90
2018-12-10T03:57:30.873Z,9.90
2018-12-10T03:59:58.826Z,9.90
2018-12-10T04:02:26.768Z,9.90
2018-12-10T04:04:54.722Z,9.90
2018-12-10T04:07:22.652Z,9.90
2018-12-10T04:09:50.625Z,9.90
2018-12-10T04:12:18.585Z,9.80
2018-12-10T04:14:46.528Z,9.80
2018-12-10T04:17:14.468Z,9.80
2018-12-10T04:19:42.400Z,9.80
2018-12-10T04:22:11.175Z,9.80
2018-12-10T04:24:39.142Z,9.80
2018-12-10T04:27:07.158Z,9.80
2018-12-10T04:29:35.184Z,9.70
2018-12-10T04:32:03.132Z,9.70
2018-12-10T04:34:31.073Z,9.70
2018-12-10T04:36:59.021Z,9.60
2018-12-10T04:39:26.965Z,9.50
2018-12-10T04:41:54.929Z,9.50
2018-12-10T04:44:22.860Z,9.40
2018-12-10T04:46:50.800Z,9.40
2018-12-10T04:49:18.764Z,9.40
2018-12-10T04:51:46.697Z,9.40
2018-12-10T04:54:14.637Z,9.30
2018-12-10T04:56:42.609Z,9.30
2018-12-10T04:59:10.585Z,9.20
2018-12-10T05:01:38.620Z,9.10
2018-12-10T05:04:06.652Z,9.00
2018-12-10T05:06:34.624Z,9.00
2018-12-10T05:09:03.747Z,9.00
2018-12-10T05:11:31.717Z,9.00
2018-12-10T05:13:59.652Z,8.90
2018-12-10T05:16:27.642Z,8.90
2018-12-10T05:18:55.577Z,8.90
2018-12-10T05:21:23.526Z,8.90
2018-12-10T05:23:51.469Z,8.90
2018-12-10T05:26:19.406Z,8.80
2018-12-10T05:28:47.337Z,8.80
2018-12-10T05:31:15.376Z,8.80
2018-12-10T05:33:43.387Z,8.80
2018-12-10T05:36:11.343Z,8.80
2018-12-10T05:38:39.264Z,8.90
2018-12-10T05:41:07.253Z,8.90
2018-12-10T05:43:35.322Z,9.00
2018-12-10T05:46:03.401Z,9.10
2018-12-10T05:48:31.380Z,9.20
2018-12-10T05:50:59.321Z,9.30
2018-12-10T05:53:27.280Z,9.40
2018-12-10T05:55:55.221Z,9.40
2018-12-10T05:58:23.219Z,9.50
2018-12-10T06:00:51.237Z,9.50
2018-12-10T06:03:20.105Z,9.40
2018-12-10T06:05:48.225Z,9.30
2018-12-10T06:08:16.168Z,9.20
2018-12-10T06:10:44.224Z,9.10
2018-12-10T06:13:12.183Z,9.00
2018-12-10T06:15:40.164Z,8.90
2018-12-10T06:18:08.189Z,8.80
2018-12-10T06:20:36.160Z,8.80
2018-12-10T06:23:04.116Z,8.70
2018-12-10T06:25:32.059Z,8.60
2018-12-10T06:28:00.025Z,8.60
2018-12-10T06:30:27.949Z,8.60
2018-12-10T06:32:55.938Z,8.50
2018-12-10T06:38:23.043Z,8.40
2018-12-10T06:40:50.977Z,8.40
2018-12-10T06:43:18.978Z,8.50
2018-12-10T06:45:46.920Z,8.60
2018-12-10T06:48:14.893Z,8.70
2018-12-10T06:50:43.037Z,8.70
2018-12-10T06:53:11.027Z,8.70
2018-12-10T06:55:39.167Z,8.70
2018-12-10T06:58:07.093Z,8.70
2018-12-10T07:00:35.028Z,8.70
2018-12-10T07:03:03.000Z,8.60
2018-12-10T07:05:30.948Z,8.70
2018-12-10T07:07:59.078Z,8.70
2018-12-10T07:10:27.044Z,8.70
2018-12-10T07:12:55.020Z,8.60
2018-12-10T07:15:22.977Z,8.50
2018-12-10T07:17:50.939Z,8.50
2018-12-10T07:20:18.932Z,8.50
2018-12-10T07:22:46.851Z,8.60
2018-12-10T07:25:14.784Z,8.60
2018-12-10T07:27:42.774Z,8.70
2018-12-10T07:30:10.818Z,8.80
2018-12-10T07:32:38.772Z,8.80
2018-12-10T07:35:06.712Z,8.90
2018-12-10T07:37:34.680Z,9.00
2018-12-10T07:40:02.667Z,9.10
2018-12-10T07:42:30.611Z,9.20
2018-12-10T07:44:58.621Z,9.30
2018-12-10T07:47:26.635Z,9.40
2018-12-10T07:49:54.572Z,9.50
2018-12-10T07:52:22.531Z,9.60
2018-12-10T07:54:50.460Z,9.60
2018-12-10T07:57:18.397Z,9.70
2018-12-10T07:59:46.423Z,9.70
2018-12-10T08:02:45.218Z,9.70
2018-12-10T08:05:13.232Z,9.80
2018-12-10T08:07:41.181Z,9.80
2018-12-10T08:10:09.148Z,9.90
2018-12-10T08:12:37.125Z,9.90
2018-12-10T08:15:05.420Z,10.00
2018-12-10T08:17:33.405Z,9.90
2018-12-10T08:20:01.344Z,10.00
2018-12-10T08:22:29.320Z,10.00
2018-12-10T08:24:57.308Z,10.10
2018-12-10T08:27:25.269Z,10.10
2018-12-10T08:29:53.211Z,10.10
2018-12-10T08:32:21.691Z,10.00
2018-12-10T08:34:49.656Z,9.80
2018-12-10T08:37:17.645Z,9.60
2018-12-10T08:39:45.588Z,9.50
2018-12-10T08:42:13.548Z,9.50
2018-12-10T08:44:41.511Z,9.50
2018-12-10T08:47:16.029Z,9.50
2018-12-10T08:49:39.407Z,9.50
2018-12-10T08:52:07.342Z,9.60
2018-12-10T08:54:35.300Z,9.70
2018-12-10T08:57:03.274Z,9.80
2018-12-10T08:59:31.312Z,10.00
2018-12-10T09:01:59.256Z,10.10
2018-12-10T09:04:27.209Z,10.40
2018-12-10T09:06:55.176Z,10.70
2018-12-10T09:09:23.124Z,10.70
2018-12-10T09:11:51.149Z,10.80
2018-12-10T09:14:19.088Z,10.90
2018-12-10T09:16:47.107Z,10.90
2018-12-10T09:19:15.172Z,11.00
2018-12-10T09:21:43.100Z,11.10
2018-12-10T09:24:11.032Z,11.20
2018-12-10T09:26:38.973Z,11.20
2018-12-10T09:29:06.916Z,11.30
2018-12-10T09:31:34.891Z,11.40
2018-12-10T09:34:02.838Z,11.40
2018-12-10T09:36:30.862Z,11.40
2018-12-10T09:38:58.815Z,11.30
2018-12-10T09:41:26.780Z,11.40
2018-12-10T09:43:54.720Z,11.30
2018-12-10T09:46:27.472Z,11.30
2018-12-10T09:48:52.685Z,11.30
2018-12-10T09:51:20.600Z,11.30
2018-12-10T09:53:48.508Z,11.20
2018-12-10T09:56:16.499Z,11.20
2018-12-10T09:58:44.468Z,11.20
2018-12-10T10:01:12.405Z,11.10
2018-12-10T10:03:40.323Z,11.20
2018-12-10T10:06:08.271Z,11.30
2018-12-10T10:08:36.211Z,11.30
2018-12-10T10:11:04.233Z,11.20
2018-12-10T10:13:32.205Z,11.20
2018-12-10T10:16:00.185Z,11.00
2018-12-10T10:18:28.125Z,10.70
2018-12-10T10:20:56.182Z,10.60
2018-12-10T10:23:24.192Z,10.50
2018-12-10T10:25:52.120Z,10.40
2018-12-10T10:28:20.037Z,10.30
2018-12-10T10:30:47.967Z,10.40
2018-12-10T10:33:16.161Z,10.50
2018-12-10T10:35:44.104Z,10.50
2018-12-10T10:38:12.041Z,10.50
2018-12-10T10:40:39.976Z,10.50
2018-12-10T10:43:07.904Z,10.70
2018-12-10T10:45:35.848Z,11.10
2018-12-10T10:48:03.811Z,11.30
2018-12-10T10:50:31.770Z,11.60
2018-12-10T10:52:59.712Z,11.70
2018-12-10T10:55:27.725Z,11.80
2018-12-10T10:57:55.696Z,11.80
2018-12-10T11:00:29.216Z,11.50
2018-12-10T11:03:03.441Z,11.40
2018-12-10T11:05:31.372Z,11.50
2018-12-10T11:07:59.286Z,11.40
2018-12-10T11:10:27.259Z,11.30
2018-12-10T11:12:55.249Z,11.40
2018-12-10T11:15:23.250Z,11.60
2018-12-10T11:17:51.180Z,11.70
2018-12-10T11:20:19.163Z,11.90
2018-12-10T11:22:47.198Z,12.30
2018-12-10T11:25:15.255Z,12.30
2018-12-10T11:27:43.207Z,12.30
2018-12-10T11:30:11.168Z,12.40
2018-12-10T11:32:39.093Z,12.20
2018-12-10T11:35:07.084Z,12.20
2018-12-10T11:37:35.025Z,12.10
2018-12-10T11:40:02.990Z,12.20
2018-12-10T11:42:31.012Z,12.10
2018-12-10T11:44:58.959Z,11.90
2018-12-10T11:47:26.913Z,11.50
2018-12-10T11:49:54.880Z,11.40
2018-12-10T11:52:22.809Z,11.30
2018-12-10T11:54:50.741Z,11.30
2018-12-10T11:57:18.705Z,11.50
2018-12-10T12:02:29.623Z,11.70
2018-12-10T12:04:52.499Z,11.80
2018-12-10T12:07:20.428Z,11.90
2018-12-10T12:09:48.354Z,12.10
2018-12-10T12:12:16.459Z,12.20
2018-12-10T12:14:44.404Z,12.40
2018-12-10T12:17:12.340Z,12.50
2018-12-10T12:19:40.292Z,12.60
2018-12-10T12:22:08.234Z,12.70
2018-12-10T12:24:36.176Z,12.70
2018-12-10T12:27:04.128Z,12.80
2018-12-10T12:29:32.107Z,12.80
2018-12-10T12:32:00.045Z,12.80
2018-12-10T12:34:27.993Z,12.90
2018-12-10T12:36:55.934Z,12.80
2018-12-10T12:39:23.904Z,12.60
2018-12-10T12:41:51.856Z,12.40
2018-12-10T12:44:19.889Z,12.10
2018-12-10T12:46:47.980Z,12.10
2018-12-10T12:49:16.127Z,12.00
2018-12-10T12:51:44.088Z,11.90
2018-12-10T12:54:12.046Z,11.70
2018-12-10T12:56:40.092Z,11.50
2018-12-10T12:59:08.072Z,11.40
2018-12-10T13:01:36.112Z,11.40
2018-12-10T13:04:04.277Z,11.40
2018-12-10T13:06:32.280Z,11.40
2018-12-10T13:09:00.224Z,11.40
2018-12-10T13:11:28.132Z,11.40
2018-12-10T13:13:56.708Z,11.50
2018-12-10T13:16:24.645Z,11.50
2018-12-10T13:18:52.983Z,11.50
2018-12-10T13:21:21.100Z,11.50
2018-12-10T13:23:50.049Z,11.50
2018-12-10T13:26:17.977Z,11.40
2018-12-10T13:28:45.897Z,11.30
2018-12-10T13:31:13.837Z,11.20
2018-12-10T13:33:41.851Z,11.30
2018-12-10T13:36:09.812Z,11.20
2018-12-10T13:38:37.825Z,11.10
2018-12-10T13:41:05.773Z,11.20
2018-12-10T13:43:33.721Z,11.30
2018-12-10T13:46:01.696Z,11.50
2018-12-10T13:48:29.729Z,11.80
2018-12-10T13:50:57.653Z,12.00
2018-12-10T13:53:25.606Z,12.40
2018-12-10T13:55:53.544Z,12.60
2018-12-10T13:58:21.539Z,12.70
2018-12-10T14:00:51.081Z,12.50
2018-12-10T14:03:19.464Z,12.30
2018-12-10T14:05:47.680Z,12.20
2018-12-10T14:08:15.808Z,12.00
2018-12-10T14:10:43.744Z,11.80
2018-12-10T14:13:11.812Z,11.70
2018-12-10T14:15:39.968Z,11.60
2018-12-10T14:18:07.900Z,11.50
2018-12-10T14:20:35.827Z,11.40
2018-12-10T14:23:03.779Z,11.30
2018-12-10T14:25:31.728Z,11.20
2018-12-10T14:27:59.671Z,11.00
2018-12-10T14:30:27.666Z,11.00
2018-12-10T14:32:55.632Z,10.90
2018-12-10T14:35:23.627Z,10.90
2018-12-10T14:37:51.553Z,11.00
2018-12-10T14:40:19.478Z,11.00
2018-12-10T14:42:57.643Z,10.90
2018-12-10T14:45:25.596Z,11.00
2018-12-10T14:47:55.057Z,11.00
2018-12-10T14:50:22.996Z,11.10
2018-12-10T14:52:51.233Z,11.10
2018-12-10T14:55:19.200Z,11.10
2018-12-10T14:57:47.243Z,11.10
2018-12-10T15:00:15.203Z,11.10
2018-12-10T15:02:43.160Z,11.10
2018-12-10T15:05:11.583Z,11.00
2018-12-10T15:07:39.604Z,11.00
2018-12-10T15:10:09.715Z,10.90
2018-12-10T15:12:37.857Z,10.90
2018-12-10T15:15:08.295Z,10.80
2018-12-10T15:17:36.228Z,10.80
2018-12-10T15:20:09.810Z,10.80
2018-12-10T15:22:37.729Z,10.80
2018-12-10T15:25:06.514Z,10.80
2018-12-10T15:27:34.829Z,10.70
2018-12-10T15:30:02.844Z,10.70
2018-12-10T15:32:30.879Z,10.60
2018-12-10T15:34:59.033Z,10.50
2018-12-10T15:37:27.022Z,10.50
2018-12-10T15:39:55.068Z,10.40
2018-12-10T15:42:23.060Z,10.40
2018-12-10T15:44:51.000Z,10.30
2018-12-10T15:47:18.937Z,10.20
2018-12-10T15:49:46.868Z,10.20
2018-12-10T15:52:14.795Z,10.10
2018-12-10T15:54:42.747Z,10.10
2018-12-10T15:57:10.733Z,10.00
2018-12-10T15:59:38.698Z,10.00
2018-12-10T16:02:06.711Z,10.00
2018-12-10T16:04:34.975Z,9.90
2018-12-10T16:07:02.925Z,9.80
2018-12-10T16:09:30.996Z,9.70
2018-12-10T16:11:59.352Z,9.70
2018-12-10T16:14:27.319Z,9.60
2018-12-10T16:16:55.272Z,9.60
2018-12-10T16:19:23.212Z,9.60
2018-12-10T16:21:51.197Z,9.50
2018-12-10T16:24:19.160Z,9.50
2018-12-10T16:26:47.161Z,9.40
2018-12-10T16:29:15.087Z,9.40
2018-12-10T16:31:43.009Z,9.40
2018-12-10T16:34:10.957Z,9.40
2018-12-10T16:36:38.901Z,9.30
2018-12-10T16:39:08.636Z,9.20
2018-12-10T16:41:36.634Z,9.20
2018-12-10T16:44:04.627Z,9.10
2018-12-10T16:46:32.592Z,9.10
2018-12-10T16:49:00.520Z,9.00
2018-12-10T16:51:28.460Z,9.00
2018-12-10T16:53:56.404Z,9.00
2018-12-10T16:56:24.384Z,9.00
2018-12-10T16:58:52.359Z,9.00
2018-12-10T17:01:20.319Z,9.00
2018-12-10T17:03:48.302Z,8.90
2018-12-10T17:06:16.252Z,8.90
2018-12-10T17:08:44.211Z,8.90
2018-12-10T17:11:12.127Z,8.80
2018-12-10T17:13:40.112Z,8.80
2018-12-10T17:16:08.138Z,8.80
2018-12-10T17:18:36.197Z,8.70
2018-12-10T17:21:04.422Z,8.70
2018-12-10T17:23:32.379Z,8.70
2018-12-10T17:26:00.349Z,8.60
2018-12-10T17:28:28.350Z,8.60
2018-12-10T17:30:56.360Z,8.50
2018-12-10T17:33:24.392Z,8.50
2018-12-10T17:35:52.408Z,8.50
2018-12-10T17:38:20.427Z,8.50
2018-12-10T17:40:48.433Z,8.50
2018-12-10T17:43:16.632Z,8.50
2018-12-10T17:45:44.617Z,8.40
2018-12-10T17:48:12.618Z,8.40
2018-12-10T17:50:40.593Z,8.40
2018-12-10T17:53:08.579Z,8.40
2018-12-10T17:55:36.829Z,8.40
2018-12-10T17:58:04.810Z,8.40
2018-12-10T18:00:32.769Z,8.30
2018-12-10T18:03:00.804Z,8.30
2018-12-10T18:05:30.152Z,8.20
2018-12-10T18:07:58.357Z,8.10
2018-12-10T18:10:26.498Z,8.10
2018-12-10T18:12:54.527Z,8.00
2018-12-10T18:15:22.742Z,8.00
2018-12-10T18:17:50.798Z,7.90
2018-12-10T18:20:18.776Z,7.90
2018-12-10T18:22:46.993Z,7.90
2018-12-10T18:25:14.984Z,7.90
2018-12-10T18:27:42.948Z,7.90
2018-12-10T18:30:12.020Z,7.80
2018-12-10T18:32:40.299Z,7.90
2018-12-10T18:35:09.611Z,7.80
2018-12-10T18:37:37.753Z,7.80
2018-12-10T18:40:09.041Z,7.80
2018-12-10T18:42:37.041Z,7.70
2018-12-10T18:45:06.759Z,7.70
2018-12-10T18:47:34.764Z,7.60
2018-12-10T18:50:02.919Z,7.60
2018-12-10T18:52:30.923Z,7.50
2018-12-10T18:54:58.948Z,7.50
2018-12-10T18:57:26.930Z,7.40
2018-12-10T18:59:54.987Z,7.50
2018-12-10T19:02:22.955Z,7.50
2018-12-10T19:04:50.927Z,7.50
2018-12-10T19:07:18.911Z,7.50
2018-12-10T19:09:46.876Z,7.40
2018-12-10T19:12:14.862Z,7.40
2018-12-10T19:14:42.864Z,7.30
2018-12-10T19:17:11.121Z,7.30
2018-12-10T19:19:39.209Z,7.20
2018-12-10T19:22:07.244Z,7.10
2018-12-10T19:24:35.314Z,7.10
2018-12-10T19:27:03.478Z,7.00
2018-12-10T19:29:31.524Z,7.10
2018-12-10T19:31:59.575Z,7.10
2018-12-10T19:34:27.637Z,7.10
2018-12-10T19:36:55.629Z,7.10
2018-12-10T19:39:23.601Z,7.00
2018-12-10T19:41:51.572Z,7.00
2018-12-10T19:44:19.581Z,7.00
2018-12-10T19:46:47.595Z,7.00
2018-12-10T19:49:15.744Z,6.90
2018-12-10T19:51:43.904Z,6.90
2018-12-10T19:54:11.948Z,6.90
2018-12-10T19:56:41.145Z,6.90
2018-12-10T19:59:09.223Z,6.90
2018-12-10T20:01:37.238Z,6.90
2018-12-10T20:04:05.377Z,6.90
2018-12-10T20:06:37.036Z,6.90
2018-12-10T20:09:06.917Z,6.80
2018-12-10T20:11:34.875Z,6.70
2018-12-10T20:14:02.928Z,6.60
2018-12-10T20:16:30.899Z,6.50
2018-12-10T20:18:58.854Z,6.50
2018-12-10T20:21:26.841Z,6.40
2018-12-10T20:23:54.770Z,6.40
2018-12-10T20:26:22.699Z,6.40
2018-12-10T20:28:50.653Z,6.40
2018-12-10T20:31:18.680Z,6.40
2018-12-10T20:33:46.825Z,6.40
2018-12-10T20:36:15.049Z,6.40
2018-12-10T20:38:43.044Z,6.40
2018-12-10T20:41:10.960Z,6.40
2018-12-10T20:43:38.904Z,6.40
2018-12-10T20:46:06.832Z,6.40
2018-12-10T20:48:34.760Z,6.50
2018-12-10T20:51:02.720Z,6.50
2018-12-10T20:53:30.636Z,6.50
2018-12-10T20:55:58.557Z,6.40
2018-12-10T20:58:26.579Z,6.40
2018-12-10T21:00:54.514Z,6.30
2018-12-10T21:03:22.452Z,6.20
2018-12-10T21:05:55.874Z,6.10
2018-12-10T21:08:23.924Z,5.90
2018-12-10T21:10:51.881Z,5.80
2018-12-10T21:13:19.820Z,5.70
2018-12-10T21:15:47.948Z,5.60
2018-12-10T21:18:15.905Z,5.50
2018-12-10T21:20:43.842Z,5.50
2018-12-10T21:23:11.792Z,5.50
2018-12-10T21:25:39.709Z,5.50
2018-12-10T21:28:07.629Z,5.60
2018-12-10T21:30:35.584Z,5.60
2018-12-10T21:33:03.545Z,5.60
2018-12-10T21:35:31.480Z,5.60
2018-12-10T21:37:59.436Z,5.60
2018-12-10T21:40:27.379Z,5.60
2018-12-10T21:42:55.303Z,5.60
2018-12-10T21:45:23.271Z,5.60
2018-12-10T21:47:51.223Z,5.50
2018-12-10T21:50:19.206Z,5.40
2018-12-10T21:52:50.143Z,5.30
2018-12-10T21:55:18.221Z,5.20
2018-12-10T21:57:46.355Z,5.30
2018-12-10T22:00:14.360Z,5.20
2018-12-10T22:02:42.287Z,5.30
2018-12-10T22:05:10.256Z,5.20
2018-12-10T22:07:38.264Z,5.30
2018-12-10T22:10:06.531Z,5.30
2018-12-10T22:12:34.440Z,5.30
2018-12-10T22:15:02.385Z,5.30
2018-12-10T22:17:30.342Z,5.30
2018-12-10T22:19:58.261Z,5.30
2018-12-10T22:22:26.188Z,5.30
2018-12-10T22:24:54.132Z,5.30
2018-12-10T22:27:22.060Z,5.20
2018-12-10T22:29:50.024Z,5.10
2018-12-10T22:32:18.041Z,5.00
2018-12-10T22:34:45.961Z,4.90
2018-12-10T22:37:13.872Z,4.80
2018-12-10T22:39:41.784Z,4.80
2018-12-10T22:42:09.732Z,4.70
2018-12-10T22:44:37.664Z,4.60
2018-12-10T22:47:05.603Z,4.60
2018-12-10T22:49:33.524Z,4.50
2018-12-10T22:52:01.476Z,4.40
2018-12-10T22:54:29.454Z,4.40
2018-12-10T22:56:57.376Z,4.30
2018-12-10T22:59:25.517Z,4.30
2018-12-10T23:01:53.462Z,4.50
2018-12-10T23:04:21.407Z,4.50
2018-12-10T23:06:49.347Z,4.40
2018-12-10T23:09:17.415Z,4.30
2018-12-10T23:11:45.349Z,4.30
2018-12-10T23:14:13.276Z,4.20
2018-12-10T23:16:41.352Z,4.20
2018-12-10T23:19:09.285Z,4.30
2018-12-10T23:21:37.251Z,4.30
2018-12-10T23:24:05.183Z,4.20
2018-12-10T23:26:33.100Z,4.20
2018-12-10T23:29:01.056Z,4.20
2018-12-10T23:31:29.014Z,4.10
2018-12-10T23:33:56.941Z,4.00
2018-12-10T23:36:25.449Z,4.00
2018-12-10T23:38:53.403Z,4.00
2018-12-10T23:41:21.348Z,4.00
2018-12-10T23:43:49.342Z,4.10
2018-12-10T23:46:17.415Z,4.20
2018-12-10T23:48:45.339Z,4.20
2018-12-10T23:51:13.324Z,4.20
2018-12-10T23:53:41.239Z,4.20
2018-12-10T23:56:09.170Z,4.20
2018-12-10T23:58:37.136Z,4.20
